sensor_id;sensor_type;location;lat;lon;timestamp;P1;durP1;ratioP1;P2;durP2;ratioP2
4359;SDS011;2193;47.980;7.660;2023-05-10T00:01:12;2.50;;;1.60;;
4359;SDS011;2193;47.980;7.660;2023-05-10T00:03:37;4.37;;;1.40;;
4359;SDS011;2193;47.980;7.660;2023-05-10T00:06:02;1.63;;;1.47;;
4359;SDS011;2193;47.980;7.660;2023-05-10T00:08:29;1.87;;;1.57;;
4359;SDS011;2193;47.980;7.660;2023-05-10T00:10:54;9.73;;;1.70;;
4359;SDS011;2193;47.980;7.660;2023-05-10T00:13:19;2.90;;;1.20;;
4359;SDS011;2193;47.980;7.660;2023-05-10T00:15:44;3.70;;;1.67;;
4359;SDS011;2193;47.980;7.660;2023-05-10T00:18:10;1.47;;;1.37;;
4359;SDS011;2193;47.980;7.660;2023-05-10T00:20:35;2.93;;;1.30;;
4359;SDS011;2193;47.980;7.660;2023-05-10T00:23:00;4.70;;;1.40;;
4359;SDS011;2193;47.980;7.660;2023-05-10T00:25:25;3.07;;;1.30;;
4359;SDS011;2193;47.980;7.660;2023-05-10T00:27:51;7.33;;;1.80;;
4359;SDS011;2193;47.980;7.660;2023-05-10T00:30:16;1.57;;;1.47;;
4359;SDS011;2193;47.980;7.660;2023-05-10T00:32:41;1.50;;;1.40;;
4359;SDS011;2193;47.980;7.660;2023-05-10T00:35:06;2.03;;;1.20;;
4359;SDS011;2193;47.980;7.660;2023-05-10T00:37:32;2.90;;;1.40;;
4359;SDS011;2193;47.980;7.660;2023-05-10T00:39:57;2.07;;;1.03;;
4359;SDS011;2193;47.980;7.660;2023-05-10T00:42:22;1.50;;;1.40;;
4359;SDS011;2193;47.980;7.660;2023-05-10T00:44:48;1.37;;;1.27;;
4359;SDS011;2193;47.980;7.660;2023-05-10T00:47:13;2.10;;;1.40;;
4359;SDS011;2193;47.980;7.660;2023-05-10T00:49:38;2.13;;;2.03;;
4359;SDS011;2193;47.980;7.660;2023-05-10T00:52:03;2.57;;;1.80;;
4359;SDS011;2193;47.980;7.660;2023-05-10T00:54:29;4.83;;;1.77;;
4359;SDS011;2193;47.980;7.660;2023-05-10T00:56:54;1.40;;;1.20;;
4359;SDS011;2193;47.980;7.660;2023-05-10T00:59:21;1.50;;;1.40;;
4359;SDS011;2193;47.980;7.660;2023-05-10T01:01:47;2.50;;;1.30;;
4359;SDS011;2193;47.980;7.660;2023-05-10T01:04:12;1.70;;;1.60;;
4359;SDS011;2193;47.980;7.660;2023-05-10T01:06:38;2.50;;;1.70;;
4359;SDS011;2193;47.980;7.660;2023-05-10T01:09:04;2.20;;;1.50;;
4359;SDS011;2193;47.980;7.660;2023-05-10T01:11:29;1.60;;;1.50;;
4359;SDS011;2193;47.980;7.660;2023-05-10T01:13:55;4.37;;;1.70;;
4359;SDS011;2193;47.980;7.660;2023-05-10T01:16:21;2.00;;;1.57;;
4359;SDS011;2193;47.980;7.660;2023-05-10T01:18:47;1.57;;;1.40;;
4359;SDS011;2193;47.980;7.660;2023-05-10T01:24:06;6.40;;;1.37;;
4359;SDS011;2193;47.980;7.660;2023-05-10T01:29:11;2.53;;;1.63;;
4359;SDS011;2193;47.980;7.660;2023-05-10T01:34:21;3.67;;;1.40;;
4359;SDS011;2193;47.980;7.660;2023-05-10T01:36:51;5.37;;;1.67;;
4359;SDS011;2193;47.980;7.660;2023-05-10T01:42:26;1.77;;;1.60;;
4359;SDS011;2193;47.980;7.660;2023-05-10T01:44:53;2.90;;;1.70;;
4359;SDS011;2193;47.980;7.660;2023-05-10T01:47:20;4.30;;;1.47;;
4359;SDS011;2193;47.980;7.660;2023-05-10T01:49:49;3.57;;;1.90;;
4359;SDS011;2193;47.980;7.660;2023-05-10T01:52:16;1.40;;;1.40;;
4359;SDS011;2193;47.980;7.660;2023-05-10T01:54:53;3.30;;;1.80;;
4359;SDS011;2193;47.980;7.660;2023-05-10T01:57:20;1.67;;;1.50;;
4359;SDS011;2193;47.980;7.660;2023-05-10T01:59:47;1.73;;;1.63;;
4359;SDS011;2193;47.980;7.660;2023-05-10T02:02:14;1.80;;;1.70;;
4359;SDS011;2193;47.980;7.660;2023-05-10T02:04:40;9.70;;;2.00;;
4359;SDS011;2193;47.980;7.660;2023-05-10T02:07:05;2.90;;;1.70;;
4359;SDS011;2193;47.980;7.660;2023-05-10T02:09:32;2.40;;;1.73;;
4359;SDS011;2193;47.980;7.660;2023-05-10T02:11:57;3.57;;;2.20;;
4359;SDS011;2193;47.980;7.660;2023-05-10T02:14:24;3.40;;;1.93;;
4359;SDS011;2193;47.980;7.660;2023-05-10T02:16:51;2.40;;;1.97;;
4359;SDS011;2193;47.980;7.660;2023-05-10T02:19:17;3.20;;;1.97;;
4359;SDS011;2193;47.980;7.660;2023-05-10T02:21:43;3.77;;;2.40;;
4359;SDS011;2193;47.980;7.660;2023-05-10T02:24:09;7.63;;;2.20;;
4359;SDS011;2193;47.980;7.660;2023-05-10T02:26:36;2.17;;;1.90;;
4359;SDS011;2193;47.980;7.660;2023-05-10T02:29:02;2.27;;;2.07;;
4359;SDS011;2193;47.980;7.660;2023-05-10T02:31:29;2.30;;;2.10;;
4359;SDS011;2193;47.980;7.660;2023-05-10T02:33:55;4.30;;;2.00;;
4359;SDS011;2193;47.980;7.660;2023-05-10T02:36:22;3.10;;;2.33;;
4359;SDS011;2193;47.980;7.660;2023-05-10T02:38:47;4.00;;;2.20;;
4359;SDS011;2193;47.980;7.660;2023-05-10T02:41:13;5.40;;;2.40;;
4359;SDS011;2193;47.980;7.660;2023-05-10T02:43:39;3.40;;;2.20;;
4359;SDS011;2193;47.980;7.660;2023-05-10T02:46:05;2.93;;;2.30;;
4359;SDS011;2193;47.980;7.660;2023-05-10T02:48:30;3.63;;;2.00;;
4359;SDS011;2193;47.980;7.660;2023-05-10T02:50:56;3.87;;;2.50;;
4359;SDS011;2193;47.980;7.660;2023-05-10T02:53:29;3.00;;;2.20;;
4359;SDS011;2193;47.980;7.660;2023-05-10T02:55:56;2.57;;;2.30;;
4359;SDS011;2193;47.980;7.660;2023-05-10T02:58:22;2.13;;;1.93;;
4359;SDS011;2193;47.980;7.660;2023-05-10T03:00:47;5.30;;;2.23;;
4359;SDS011;2193;47.980;7.660;2023-05-10T03:03:12;4.50;;;2.40;;
4359;SDS011;2193;47.980;7.660;2023-05-10T03:05:37;6.03;;;2.30;;
4359;SDS011;2193;47.980;7.660;2023-05-10T03:08:03;10.30;;;2.67;;
4359;SDS011;2193;47.980;7.660;2023-05-10T03:10:29;4.70;;;2.40;;
4359;SDS011;2193;47.980;7.660;2023-05-10T03:15:22;4.00;;;2.63;;
4359;SDS011;2193;47.980;7.660;2023-05-10T03:17:57;2.83;;;2.37;;
4359;SDS011;2193;47.980;7.660;2023-05-10T03:20:31;3.57;;;3.00;;
4359;SDS011;2193;47.980;7.660;2023-05-10T03:23:00;3.40;;;3.10;;
4359;SDS011;2193;47.980;7.660;2023-05-10T03:25:27;3.13;;;2.83;;
4359;SDS011;2193;47.980;7.660;2023-05-10T03:27:54;6.50;;;2.90;;
4359;SDS011;2193;47.980;7.660;2023-05-10T03:30:21;4.53;;;2.73;;
4359;SDS011;2193;47.980;7.660;2023-05-10T03:32:46;4.53;;;2.90;;
4359;SDS011;2193;47.980;7.660;2023-05-10T03:35:12;6.17;;;2.60;;
4359;SDS011;2193;47.980;7.660;2023-05-10T03:37:38;2.77;;;2.57;;
4359;SDS011;2193;47.980;7.660;2023-05-10T03:40:03;3.47;;;2.80;;
4359;SDS011;2193;47.980;7.660;2023-05-10T03:42:29;3.10;;;2.80;;
4359;SDS011;2193;47.980;7.660;2023-05-10T03:44:54;4.47;;;2.90;;
4359;SDS011;2193;47.980;7.660;2023-05-10T03:47:19;2.93;;;2.70;;
4359;SDS011;2193;47.980;7.660;2023-05-10T03:49:45;8.27;;;2.87;;
4359;SDS011;2193;47.980;7.660;2023-05-10T03:52:10;5.43;;;2.47;;
4359;SDS011;2193;47.980;7.660;2023-05-10T03:54:35;9.67;;;2.40;;
4359;SDS011;2193;47.980;7.660;2023-05-10T03:57:01;2.20;;;2.10;;
4359;SDS011;2193;47.980;7.660;2023-05-10T03:59:26;4.47;;;3.23;;
4359;SDS011;2193;47.980;7.660;2023-05-10T04:01:51;2.90;;;2.70;;
4359;SDS011;2193;47.980;7.660;2023-05-10T04:04:16;2.80;;;2.50;;
4359;SDS011;2193;47.980;7.660;2023-05-10T04:06:43;2.90;;;2.30;;
4359;SDS011;2193;47.980;7.660;2023-05-10T04:09:08;1.90;;;1.80;;
4359;SDS011;2193;47.980;7.660;2023-05-10T04:11:34;2.20;;;2.00;;
4359;SDS011;2193;47.980;7.660;2023-05-10T04:13:59;2.60;;;2.40;;
4359;SDS011;2193;47.980;7.660;2023-05-10T04:16:24;2.33;;;2.13;;
4359;SDS011;2193;47.980;7.660;2023-05-10T04:18:49;3.00;;;2.63;;
4359;SDS011;2193;47.980;7.660;2023-05-10T04:21:15;3.03;;;2.70;;
4359;SDS011;2193;47.980;7.660;2023-05-10T04:23:40;3.10;;;2.80;;
4359;SDS011;2193;47.980;7.660;2023-05-10T04:26:06;10.53;;;3.33;;
4359;SDS011;2193;47.980;7.660;2023-05-10T04:28:31;3.77;;;2.57;;
4359;SDS011;2193;47.980;7.660;2023-05-10T04:31:06;3.30;;;2.57;;
4359;SDS011;2193;47.980;7.660;2023-05-10T04:33:32;2.57;;;2.37;;
4359;SDS011;2193;47.980;7.660;2023-05-10T04:35:57;8.20;;;3.07;;
4359;SDS011;2193;47.980;7.660;2023-05-10T04:38:22;3.83;;;2.70;;
4359;SDS011;2193;47.980;7.660;2023-05-10T04:40:47;4.60;;;3.00;;
4359;SDS011;2193;47.980;7.660;2023-05-10T04:43:13;3.20;;;2.93;;
4359;SDS011;2193;47.980;7.660;2023-05-10T04:45:38;4.53;;;2.60;;
4359;SDS011;2193;47.980;7.660;2023-05-10T04:48:03;3.57;;;2.23;;
4359;SDS011;2193;47.980;7.660;2023-05-10T04:50:28;3.20;;;2.87;;
4359;SDS011;2193;47.980;7.660;2023-05-10T04:52:53;2.73;;;2.50;;
4359;SDS011;2193;47.980;7.660;2023-05-10T04:55:19;4.90;;;3.13;;
4359;SDS011;2193;47.980;7.660;2023-05-10T04:57:44;6.10;;;3.13;;
4359;SDS011;2193;47.980;7.660;2023-05-10T05:00:10;4.80;;;2.93;;
4359;SDS011;2193;47.980;7.660;2023-05-10T05:02:35;3.57;;;2.80;;
4359;SDS011;2193;47.980;7.660;2023-05-10T05:05:00;3.20;;;2.53;;
4359;SDS011;2193;47.980;7.660;2023-05-10T05:07:25;3.37;;;2.90;;
4359;SDS011;2193;47.980;7.660;2023-05-10T05:09:51;3.83;;;3.30;;
4359;SDS011;2193;47.980;7.660;2023-05-10T05:12:16;7.63;;;3.40;;
4359;SDS011;2193;47.980;7.660;2023-05-10T05:14:41;3.60;;;3.30;;
4359;SDS011;2193;47.980;7.660;2023-05-10T05:17:06;3.43;;;2.77;;
4359;SDS011;2193;47.980;7.660;2023-05-10T05:19:32;13.03;;;3.10;;
4359;SDS011;2193;47.980;7.660;2023-05-10T05:21:57;3.37;;;3.03;;
4359;SDS011;2193;47.980;7.660;2023-05-10T05:24:22;5.20;;;3.07;;
4359;SDS011;2193;47.980;7.660;2023-05-10T05:26:48;3.17;;;2.87;;
4359;SDS011;2193;47.980;7.660;2023-05-10T05:29:13;10.40;;;3.47;;
4359;SDS011;2193;47.980;7.660;2023-05-10T05:31:38;8.50;;;3.60;;
4359;SDS011;2193;47.980;7.660;2023-05-10T05:34:03;3.20;;;2.90;;
4359;SDS011;2193;47.980;7.660;2023-05-10T05:36:29;4.43;;;3.40;;
4359;SDS011;2193;47.980;7.660;2023-05-10T05:38:54;3.77;;;3.33;;
4359;SDS011;2193;47.980;7.660;2023-05-10T05:41:19;7.53;;;3.47;;
4359;SDS011;2193;47.980;7.660;2023-05-10T05:43:46;5.00;;;3.27;;
4359;SDS011;2193;47.980;7.660;2023-05-10T05:46:11;7.50;;;2.93;;
4359;SDS011;2193;47.980;7.660;2023-05-10T05:48:36;4.17;;;3.47;;
4359;SDS011;2193;47.980;7.660;2023-05-10T05:51:01;3.07;;;2.77;;
4359;SDS011;2193;47.980;7.660;2023-05-10T05:53:27;3.07;;;2.70;;
4359;SDS011;2193;47.980;7.660;2023-05-10T05:58:18;4.07;;;2.40;;
4359;SDS011;2193;47.980;7.660;2023-05-10T06:00:43;4.60;;;2.40;;
4359;SDS011;2193;47.980;7.660;2023-05-10T06:03:08;2.80;;;2.47;;
4359;SDS011;2193;47.980;7.660;2023-05-10T06:05:33;3.60;;;2.70;;
4359;SDS011;2193;47.980;7.660;2023-05-10T06:07:59;4.33;;;2.63;;
4359;SDS011;2193;47.980;7.660;2023-05-10T06:10:24;3.83;;;2.33;;
4359;SDS011;2193;47.980;7.660;2023-05-10T06:12:50;2.90;;;2.10;;
4359;SDS011;2193;47.980;7.660;2023-05-10T06:15:15;5.23;;;2.43;;
4359;SDS011;2193;47.980;7.660;2023-05-10T06:17:41;3.77;;;2.33;;
4359;SDS011;2193;47.980;7.660;2023-05-10T06:20:08;3.00;;;2.67;;
4359;SDS011;2193;47.980;7.660;2023-05-10T06:22:33;3.47;;;2.30;;
4359;SDS011;2193;47.980;7.660;2023-05-10T06:24:58;2.80;;;2.27;;
4359;SDS011;2193;47.980;7.660;2023-05-10T06:27:24;2.90;;;2.30;;
4359;SDS011;2193;47.980;7.660;2023-05-10T06:29:49;3.17;;;2.00;;
4359;SDS011;2193;47.980;7.660;2023-05-10T06:32:14;3.53;;;2.10;;
4359;SDS011;2193;47.980;7.660;2023-05-10T06:34:39;4.37;;;2.27;;
4359;SDS011;2193;47.980;7.660;2023-05-10T06:37:05;2.60;;;2.00;;
4359;SDS011;2193;47.980;7.660;2023-05-10T06:39:30;3.33;;;2.30;;
4359;SDS011;2193;47.980;7.660;2023-05-10T06:41:55;4.30;;;2.23;;
4359;SDS011;2193;47.980;7.660;2023-05-10T06:44:20;3.80;;;2.50;;
4359;SDS011;2193;47.980;7.660;2023-05-10T06:46:46;3.47;;;2.23;;
4359;SDS011;2193;47.980;7.660;2023-05-10T06:49:11;4.23;;;2.40;;
4359;SDS011;2193;47.980;7.660;2023-05-10T06:51:37;4.43;;;2.00;;
4359;SDS011;2193;47.980;7.660;2023-05-10T06:54:02;5.83;;;2.27;;
4359;SDS011;2193;47.980;7.660;2023-05-10T06:56:28;4.90;;;2.13;;
4359;SDS011;2193;47.980;7.660;2023-05-10T06:58:53;3.20;;;2.20;;
4359;SDS011;2193;47.980;7.660;2023-05-10T07:01:18;3.70;;;2.40;;
4359;SDS011;2193;47.980;7.660;2023-05-10T07:03:43;1.77;;;1.67;;
4359;SDS011;2193;47.980;7.660;2023-05-10T07:06:08;2.40;;;1.90;;
4359;SDS011;2193;47.980;7.660;2023-05-10T07:08:34;4.87;;;1.87;;
4359;SDS011;2193;47.980;7.660;2023-05-10T07:11:02;2.13;;;1.63;;
4359;SDS011;2193;47.980;7.660;2023-05-10T07:13:28;4.93;;;2.20;;
4359;SDS011;2193;47.980;7.660;2023-05-10T07:15:53;3.90;;;2.00;;
4359;SDS011;2193;47.980;7.660;2023-05-10T07:18:19;4.30;;;1.97;;
4359;SDS011;2193;47.980;7.660;2023-05-10T07:20:44;3.23;;;1.60;;
4359;SDS011;2193;47.980;7.660;2023-05-10T07:23:09;4.30;;;2.20;;
4359;SDS011;2193;47.980;7.660;2023-05-10T07:25:34;1.87;;;1.70;;
4359;SDS011;2193;47.980;7.660;2023-05-10T07:28:00;4.27;;;2.17;;
4359;SDS011;2193;47.980;7.660;2023-05-10T07:30:25;7.40;;;2.37;;
4359;SDS011;2193;47.980;7.660;2023-05-10T07:32:50;5.20;;;2.40;;
4359;SDS011;2193;47.980;7.660;2023-05-10T07:35:15;4.40;;;2.20;;
4359;SDS011;2193;47.980;7.660;2023-05-10T07:37:40;2.50;;;2.00;;
4359;SDS011;2193;47.980;7.660;2023-05-10T07:40:06;6.00;;;2.17;;
4359;SDS011;2193;47.980;7.660;2023-05-10T07:42:31;5.10;;;2.10;;
4359;SDS011;2193;47.980;7.660;2023-05-10T07:44:56;3.43;;;2.07;;
4359;SDS011;2193;47.980;7.660;2023-05-10T07:47:22;2.17;;;1.33;;
4359;SDS011;2193;47.980;7.660;2023-05-10T07:49:48;2.37;;;1.70;;
4359;SDS011;2193;47.980;7.660;2023-05-10T07:52:13;3.37;;;1.93;;
4359;SDS011;2193;47.980;7.660;2023-05-10T07:54:38;4.80;;;1.67;;
4359;SDS011;2193;47.980;7.660;2023-05-10T07:57:03;10.37;;;1.83;;
4359;SDS011;2193;47.980;7.660;2023-05-10T07:59:29;5.60;;;1.50;;
4359;SDS011;2193;47.980;7.660;2023-05-10T08:01:54;4.13;;;1.70;;
4359;SDS011;2193;47.980;7.660;2023-05-10T08:04:19;3.83;;;1.47;;
4359;SDS011;2193;47.980;7.660;2023-05-10T08:06:44;2.03;;;1.37;;
4359;SDS011;2193;47.980;7.660;2023-05-10T08:09:10;3.27;;;1.87;;
4359;SDS011;2193;47.980;7.660;2023-05-10T08:11:35;4.53;;;1.50;;
4359;SDS011;2193;47.980;7.660;2023-05-10T08:14:00;3.60;;;1.20;;
4359;SDS011;2193;47.980;7.660;2023-05-10T08:16:26;5.23;;;1.30;;
4359;SDS011;2193;47.980;7.660;2023-05-10T08:18:51;4.17;;;1.57;;
4359;SDS011;2193;47.980;7.660;2023-05-10T08:21:16;3.67;;;2.10;;
4359;SDS011;2193;47.980;7.660;2023-05-10T08:23:41;6.17;;;1.63;;
4359;SDS011;2193;47.980;7.660;2023-05-10T08:26:08;4.20;;;1.40;;
4359;SDS011;2193;47.980;7.660;2023-05-10T08:28:33;1.63;;;1.17;;
4359;SDS011;2193;47.980;7.660;2023-05-10T08:30:59;6.63;;;1.63;;
4359;SDS011;2193;47.980;7.660;2023-05-10T08:33:24;5.90;;;1.50;;
4359;SDS011;2193;47.980;7.660;2023-05-10T08:35:49;3.53;;;1.40;;
4359;SDS011;2193;47.980;7.660;2023-05-10T08:38:15;1.93;;;1.17;;
4359;SDS011;2193;47.980;7.660;2023-05-10T08:40:41;6.07;;;1.47;;
4359;SDS011;2193;47.980;7.660;2023-05-10T08:43:09;6.67;;;1.47;;
4359;SDS011;2193;47.980;7.660;2023-05-10T08:45:38;4.93;;;1.57;;
4359;SDS011;2193;47.980;7.660;2023-05-10T08:48:04;2.80;;;1.33;;
4359;SDS011;2193;47.980;7.660;2023-05-10T08:50:30;3.40;;;1.40;;
4359;SDS011;2193;47.980;7.660;2023-05-10T08:52:57;3.63;;;1.07;;
4359;SDS011;2193;47.980;7.660;2023-05-10T08:55:23;2.10;;;1.00;;
4359;SDS011;2193;47.980;7.660;2023-05-10T08:57:49;2.20;;;1.07;;
4359;SDS011;2193;47.980;7.660;2023-05-10T09:00:14;1.97;;;1.10;;
4359;SDS011;2193;47.980;7.660;2023-05-10T09:02:40;2.90;;;1.00;;
4359;SDS011;2193;47.980;7.660;2023-05-10T09:05:06;2.10;;;1.20;;
4359;SDS011;2193;47.980;7.660;2023-05-10T09:07:32;3.17;;;1.40;;
4359;SDS011;2193;47.980;7.660;2023-05-10T09:09:57;3.80;;;1.40;;
4359;SDS011;2193;47.980;7.660;2023-05-10T09:12:22;3.73;;;1.13;;
4359;SDS011;2193;47.980;7.660;2023-05-10T09:14:48;6.60;;;1.30;;
4359;SDS011;2193;47.980;7.660;2023-05-10T09:17:14;1.90;;;1.10;;
4359;SDS011;2193;47.980;7.660;2023-05-10T09:19:39;1.37;;;1.00;;
4359;SDS011;2193;47.980;7.660;2023-05-10T09:22:04;14.70;;;1.40;;
4359;SDS011;2193;47.980;7.660;2023-05-10T09:24:29;3.67;;;1.10;;
4359;SDS011;2193;47.980;7.660;2023-05-10T09:26:55;1.80;;;1.20;;
4359;SDS011;2193;47.980;7.660;2023-05-10T09:29:21;2.60;;;1.00;;
4359;SDS011;2193;47.980;7.660;2023-05-10T09:31:47;1.87;;;1.07;;
4359;SDS011;2193;47.980;7.660;2023-05-10T09:34:19;1.47;;;0.93;;
4359;SDS011;2193;47.980;7.660;2023-05-10T09:36:54;9.00;;;1.10;;
4359;SDS011;2193;47.980;7.660;2023-05-10T09:39:19;3.33;;;1.00;;
4359;SDS011;2193;47.980;7.660;2023-05-10T09:41:45;1.63;;;1.00;;
4359;SDS011;2193;47.980;7.660;2023-05-10T09:44:10;2.30;;;0.90;;
4359;SDS011;2193;47.980;7.660;2023-05-10T09:46:35;2.37;;;0.90;;
4359;SDS011;2193;47.980;7.660;2023-05-10T09:49:01;2.03;;;1.00;;
4359;SDS011;2193;47.980;7.660;2023-05-10T09:51:26;2.53;;;0.90;;
4359;SDS011;2193;47.980;7.660;2023-05-10T09:54:08;3.90;;;0.90;;
4359;SDS011;2193;47.980;7.660;2023-05-10T09:56:34;1.43;;;0.87;;
4359;SDS011;2193;47.980;7.660;2023-05-10T09:59:03;2.10;;;0.90;;
4359;SDS011;2193;47.980;7.660;2023-05-10T10:01:28;2.20;;;0.77;;
4359;SDS011;2193;47.980;7.660;2023-05-10T10:03:54;3.23;;;1.10;;
4359;SDS011;2193;47.980;7.660;2023-05-10T10:06:19;4.03;;;0.90;;
4359;SDS011;2193;47.980;7.660;2023-05-10T10:08:45;1.50;;;0.90;;
4359;SDS011;2193;47.980;7.660;2023-05-10T10:11:10;4.30;;;0.93;;
4359;SDS011;2193;47.980;7.660;2023-05-10T10:13:35;2.10;;;0.93;;
4359;SDS011;2193;47.980;7.660;2023-05-10T10:16:01;4.37;;;1.00;;
4359;SDS011;2193;47.980;7.660;2023-05-10T10:18:26;1.10;;;1.00;;
4359;SDS011;2193;47.980;7.660;2023-05-10T10:20:53;8.23;;;1.10;;
4359;SDS011;2193;47.980;7.660;2023-05-10T10:23:19;1.70;;;0.80;;
4359;SDS011;2193;47.980;7.660;2023-05-10T10:25:45;3.73;;;1.80;;
4359;SDS011;2193;47.980;7.660;2023-05-10T10:31:02;2.93;;;1.10;;
4359;SDS011;2193;47.980;7.660;2023-05-10T10:33:47;3.40;;;1.03;;
4359;SDS011;2193;47.980;7.660;2023-05-10T10:36:16;1.37;;;1.00;;
4359;SDS011;2193;47.980;7.660;2023-05-10T10:49:23;3.10;;;1.13;;
4359;SDS011;2193;47.980;7.660;2023-05-10T10:52:12;3.43;;;1.17;;
4359;SDS011;2193;47.980;7.660;2023-05-10T10:54:37;2.67;;;1.10;;
4359;SDS011;2193;47.980;7.660;2023-05-10T10:57:12;4.50;;;1.17;;
4359;SDS011;2193;47.980;7.660;2023-05-10T10:59:44;3.27;;;1.13;;
4359;SDS011;2193;47.980;7.660;2023-05-10T11:02:10;2.10;;;1.20;;
4359;SDS011;2193;47.980;7.660;2023-05-10T11:04:55;1.40;;;1.10;;
4359;SDS011;2193;47.980;7.660;2023-05-10T11:07:20;3.70;;;1.30;;
4359;SDS011;2193;47.980;7.660;2023-05-10T11:09:46;2.23;;;1.00;;
4359;SDS011;2193;47.980;7.660;2023-05-10T11:12:12;4.23;;;1.40;;
4359;SDS011;2193;47.980;7.660;2023-05-10T11:14:37;4.73;;;1.20;;
4359;SDS011;2193;47.980;7.660;2023-05-10T11:17:10;4.40;;;1.17;;
4359;SDS011;2193;47.980;7.660;2023-05-10T11:20:02;2.17;;;1.00;;
4359;SDS011;2193;47.980;7.660;2023-05-10T11:22:28;1.47;;;1.00;;
4359;SDS011;2193;47.980;7.660;2023-05-10T11:24:56;1.10;;;0.90;;
4359;SDS011;2193;47.980;7.660;2023-05-10T11:27:23;4.20;;;1.30;;
4359;SDS011;2193;47.980;7.660;2023-05-10T11:29:51;3.70;;;1.00;;
4359;SDS011;2193;47.980;7.660;2023-05-10T11:32:16;5.20;;;1.23;;
4359;SDS011;2193;47.980;7.660;2023-05-10T11:34:42;1.20;;;1.00;;
4359;SDS011;2193;47.980;7.660;2023-05-10T11:37:07;3.87;;;1.10;;
4359;SDS011;2193;47.980;7.660;2023-05-10T11:39:32;1.53;;;1.00;;
4359;SDS011;2193;47.980;7.660;2023-05-10T11:41:58;2.87;;;1.10;;
4359;SDS011;2193;47.980;7.660;2023-05-10T11:44:28;2.00;;;0.97;;
4359;SDS011;2193;47.980;7.660;2023-05-10T11:46:54;3.63;;;0.93;;
4359;SDS011;2193;47.980;7.660;2023-05-10T11:49:20;1.47;;;0.90;;
4359;SDS011;2193;47.980;7.660;2023-05-10T11:51:45;5.03;;;1.30;;
4359;SDS011;2193;47.980;7.660;2023-05-10T11:54:11;2.10;;;1.00;;
4359;SDS011;2193;47.980;7.660;2023-05-10T11:56:39;7.20;;;1.00;;
4359;SDS011;2193;47.980;7.660;2023-05-10T11:59:05;1.83;;;1.10;;
4359;SDS011;2193;47.980;7.660;2023-05-10T12:01:30;1.57;;;0.80;;
4359;SDS011;2193;47.980;7.660;2023-05-10T12:03:56;2.63;;;0.80;;
4359;SDS011;2193;47.980;7.660;2023-05-10T12:06:26;4.00;;;1.00;;
4359;SDS011;2193;47.980;7.660;2023-05-10T12:08:51;1.90;;;1.10;;
4359;SDS011;2193;47.980;7.660;2023-05-10T12:11:18;1.90;;;1.00;;
4359;SDS011;2193;47.980;7.660;2023-05-10T12:13:44;1.53;;;0.93;;
4359;SDS011;2193;47.980;7.660;2023-05-10T12:16:19;2.43;;;1.00;;
4359;SDS011;2193;47.980;7.660;2023-05-10T12:18:47;3.73;;;1.10;;
4359;SDS011;2193;47.980;7.660;2023-05-10T12:21:13;1.80;;;1.10;;
4359;SDS011;2193;47.980;7.660;2023-05-10T12:23:40;6.50;;;1.40;;
4359;SDS011;2193;47.980;7.660;2023-05-10T12:26:05;2.93;;;0.80;;
4359;SDS011;2193;47.980;7.660;2023-05-10T12:28:31;4.93;;;0.90;;
4359;SDS011;2193;47.980;7.660;2023-05-10T12:30:57;1.73;;;0.80;;
4359;SDS011;2193;47.980;7.660;2023-05-10T12:33:22;1.70;;;0.80;;
4359;SDS011;2193;47.980;7.660;2023-05-10T12:35:48;3.90;;;1.07;;
4359;SDS011;2193;47.980;7.660;2023-05-10T12:41:04;1.90;;;0.80;;
4359;SDS011;2193;47.980;7.660;2023-05-10T12:43:29;0.90;;;0.80;;
4359;SDS011;2193;47.980;7.660;2023-05-10T12:45:55;1.53;;;0.70;;
4359;SDS011;2193;47.980;7.660;2023-05-10T12:48:20;4.83;;;0.80;;
4359;SDS011;2193;47.980;7.660;2023-05-10T12:50:46;1.93;;;0.70;;
4359;SDS011;2193;47.980;7.660;2023-05-10T12:53:12;1.70;;;0.70;;
4359;SDS011;2193;47.980;7.660;2023-05-10T12:55:38;2.97;;;0.80;;
4359;SDS011;2193;47.980;7.660;2023-05-10T12:58:03;1.47;;;0.80;;
4359;SDS011;2193;47.980;7.660;2023-05-10T13:00:29;1.87;;;0.77;;
4359;SDS011;2193;47.980;7.660;2023-05-10T13:02:54;1.43;;;0.80;;
4359;SDS011;2193;47.980;7.660;2023-05-10T13:05:19;2.30;;;0.70;;
4359;SDS011;2193;47.980;7.660;2023-05-10T13:07:45;2.10;;;0.70;;
4359;SDS011;2193;47.980;7.660;2023-05-10T13:10:10;2.30;;;0.90;;
4359;SDS011;2193;47.980;7.660;2023-05-10T13:12:36;1.17;;;0.70;;
4359;SDS011;2193;47.980;7.660;2023-05-10T13:15:01;1.67;;;0.60;;
4359;SDS011;2193;47.980;7.660;2023-05-10T13:17:27;0.80;;;0.70;;
4359;SDS011;2193;47.980;7.660;2023-05-10T13:19:53;1.43;;;0.60;;
4359;SDS011;2193;47.980;7.660;2023-05-10T13:22:18;1.97;;;0.70;;
4359;SDS011;2193;47.980;7.660;2023-05-10T13:24:43;1.33;;;0.80;;
4359;SDS011;2193;47.980;7.660;2023-05-10T13:27:08;1.63;;;0.90;;
4359;SDS011;2193;47.980;7.660;2023-05-10T13:29:33;2.30;;;1.00;;
4359;SDS011;2193;47.980;7.660;2023-05-10T13:31:59;1.10;;;0.70;;
4359;SDS011;2193;47.980;7.660;2023-05-10T13:34:24;1.73;;;0.90;;
4359;SDS011;2193;47.980;7.660;2023-05-10T13:36:49;2.90;;;0.80;;
4359;SDS011;2193;47.980;7.660;2023-05-10T13:39:15;0.80;;;0.73;;
4359;SDS011;2193;47.980;7.660;2023-05-10T13:41:40;1.07;;;0.60;;
4359;SDS011;2193;47.980;7.660;2023-05-10T13:44:05;1.90;;;0.57;;
4359;SDS011;2193;47.980;7.660;2023-05-10T13:46:31;0.93;;;0.70;;
4359;SDS011;2193;47.980;7.660;2023-05-10T13:48:56;1.00;;;0.63;;
4359;SDS011;2193;47.980;7.660;2023-05-10T13:51:21;1.67;;;0.70;;
4359;SDS011;2193;47.980;7.660;2023-05-10T13:53:47;0.80;;;0.70;;
4359;SDS011;2193;47.980;7.660;2023-05-10T13:56:12;1.90;;;0.77;;
4359;SDS011;2193;47.980;7.660;2023-05-10T13:58:37;0.90;;;0.60;;
4359;SDS011;2193;47.980;7.660;2023-05-10T14:01:03;2.23;;;0.80;;
4359;SDS011;2193;47.980;7.660;2023-05-10T14:03:29;1.00;;;0.80;;
4359;SDS011;2193;47.980;7.660;2023-05-10T14:05:54;1.70;;;0.70;;
4359;SDS011;2193;47.980;7.660;2023-05-10T14:08:20;0.80;;;0.70;;
4359;SDS011;2193;47.980;7.660;2023-05-10T14:10:45;1.17;;;0.60;;
4359;SDS011;2193;47.980;7.660;2023-05-10T14:13:11;0.73;;;0.60;;
4359;SDS011;2193;47.980;7.660;2023-05-10T14:15:37;1.17;;;0.70;;
4359;SDS011;2193;47.980;7.660;2023-05-10T14:18:02;1.60;;;0.70;;
4359;SDS011;2193;47.980;7.660;2023-05-10T14:20:27;1.20;;;1.10;;
4359;SDS011;2193;47.980;7.660;2023-05-10T14:22:52;1.93;;;0.80;;
4359;SDS011;2193;47.980;7.660;2023-05-10T14:25:18;2.80;;;0.90;;
4359;SDS011;2193;47.980;7.660;2023-05-10T14:27:43;1.67;;;0.80;;
4359;SDS011;2193;47.980;7.660;2023-05-10T14:30:08;2.43;;;1.00;;
4359;SDS011;2193;47.980;7.660;2023-05-10T14:32:33;3.33;;;0.80;;
4359;SDS011;2193;47.980;7.660;2023-05-10T14:34:59;2.20;;;1.00;;
4359;SDS011;2193;47.980;7.660;2023-05-10T14:37:24;1.43;;;0.90;;
4359;SDS011;2193;47.980;7.660;2023-05-10T14:39:49;1.20;;;0.80;;
4359;SDS011;2193;47.980;7.660;2023-05-10T14:42:15;2.03;;;0.80;;
4359;SDS011;2193;47.980;7.660;2023-05-10T14:44:40;0.90;;;0.90;;
4359;SDS011;2193;47.980;7.660;2023-05-10T14:47:05;0.90;;;0.73;;
4359;SDS011;2193;47.980;7.660;2023-05-10T14:49:30;1.37;;;1.10;;
4359;SDS011;2193;47.980;7.660;2023-05-10T14:51:56;2.80;;;0.90;;
4359;SDS011;2193;47.980;7.660;2023-05-10T14:54:21;1.50;;;0.87;;
4359;SDS011;2193;47.980;7.660;2023-05-10T14:56:46;2.23;;;0.80;;
4359;SDS011;2193;47.980;7.660;2023-05-10T14:59:14;2.60;;;0.90;;
4359;SDS011;2193;47.980;7.660;2023-05-10T15:01:39;2.33;;;0.80;;
4359;SDS011;2193;47.980;7.660;2023-05-10T15:04:06;1.97;;;0.80;;
4359;SDS011;2193;47.980;7.660;2023-05-10T15:06:32;2.67;;;0.80;;
4359;SDS011;2193;47.980;7.660;2023-05-10T15:08:58;2.50;;;1.00;;
4359;SDS011;2193;47.980;7.660;2023-05-10T15:11:23;1.77;;;0.90;;
4359;SDS011;2193;47.980;7.660;2023-05-10T15:13:48;3.33;;;1.03;;
4359;SDS011;2193;47.980;7.660;2023-05-10T15:16:14;3.27;;;1.53;;
4359;SDS011;2193;47.980;7.660;2023-05-10T15:18:39;1.50;;;0.90;;
4359;SDS011;2193;47.980;7.660;2023-05-10T15:21:04;2.20;;;0.80;;
4359;SDS011;2193;47.980;7.660;2023-05-10T15:23:29;1.83;;;0.93;;
4359;SDS011;2193;47.980;7.660;2023-05-10T15:25:55;4.83;;;0.90;;
4359;SDS011;2193;47.980;7.660;2023-05-10T15:28:20;6.90;;;1.00;;
4359;SDS011;2193;47.980;7.660;2023-05-10T15:30:46;1.80;;;0.90;;
4359;SDS011;2193;47.980;7.660;2023-05-10T15:33:11;1.03;;;0.70;;
4359;SDS011;2193;47.980;7.660;2023-05-10T15:35:36;2.70;;;1.00;;
4359;SDS011;2193;47.980;7.660;2023-05-10T15:38:03;1.00;;;0.90;;
4359;SDS011;2193;47.980;7.660;2023-05-10T15:40:28;3.77;;;1.07;;